White Tower, Kentucky
Current Conditions -  °F | °C
As of 4:52 PM on Sunday 25 Jan 2015 (Local Time) from KCVG Reporting Station
Light Rain Light Rain  
Wind Chill: 34°   Ceiling: 2800
Heat Index: 39°   Visibility: 3mi
Dew Point: 36°   Wind: 7mph
Humidity: 89%   Direction: 110°ESE
Pressure: 29.64"   Gusts: NA
Location:  38.9286°N, 84.5381°W
Report Text: KCVG 252152Z 11006KT 3SM -RA BR BKN028 OVC036 04/02 A2964 RMK AO2 SLP041 P0004 T00390022
Loading
Personal Weather Stations






























Interactive Weather Map New forecast layout! Learn more

10-Day Weather Forecast

Advertisements
Track Severe Weather on mobile